createdAt,value
2023-01-09T00:01:59.322Z,98335.41
2023-01-09T00:04:25.658Z,98325.09
2023-01-09T00:06:54.924Z,98333.81
2023-01-09T00:09:22.302Z,98321.06
2023-01-09T00:11:49.657Z,98316.28
2023-01-09T00:14:17.538Z,98307.38
2023-01-09T00:16:44.044Z,98306.75
2023-01-09T00:19:11.237Z,98299.84
2023-01-09T00:21:38.101Z,98297.53
2023-01-09T00:24:04.952Z,98283.34
2023-01-09T00:26:31.459Z,98280.69
2023-01-09T00:28:58.164Z,98283.72
2023-01-09T00:31:24.589Z,98282.66
2023-01-09T00:34:05.048Z,98275.63
2023-01-09T00:36:31.623Z,98296.06
2023-01-09T00:38:58.846Z,98316.78
2023-01-09T00:41:34.079Z,98323.38
2023-01-09T00:44:10.870Z,98323.00
2023-01-09T00:46:41.325Z,98322.34
2023-01-09T00:49:09.201Z,98316.78
2023-01-09T00:51:36.625Z,98319.38
2023-01-09T00:54:03.955Z,98325.81
2023-01-09T00:56:30.364Z,98319.91
2023-01-09T00:58:56.976Z,98319.66
2023-01-09T01:01:23.462Z,98324.84
2023-01-09T01:03:49.950Z,98327.41
2023-01-09T01:06:34.808Z,98327.97
2023-01-09T01:09:01.273Z,98327.19
2023-01-09T01:11:27.723Z,98345.16
2023-01-09T01:13:54.192Z,98343.91
2023-01-09T01:16:20.661Z,98344.50
2023-01-09T01:18:47.180Z,98349.19
2023-01-09T01:21:15.023Z,98352.69
2023-01-09T01:23:41.435Z,98352.44
2023-01-09T01:26:10.960Z,98344.34
2023-01-09T01:28:37.892Z,98357.00
2023-01-09T01:31:05.392Z,98346.88
2023-01-09T01:33:33.049Z,98350.56
2023-01-09T01:36:07.762Z,98353.13
2023-01-09T01:38:35.579Z,98360.66
2023-01-09T01:41:03.071Z,98364.50
2023-01-09T01:43:49.190Z,98367.66
2023-01-09T01:46:18.174Z,98353.13
2023-01-09T01:48:45.779Z,98368.59
2023-01-09T01:51:15.569Z,98375.81
2023-01-09T01:53:48.164Z,98372.19
2023-01-09T01:56:14.490Z,98374.50
2023-01-09T01:58:49.503Z,98374.31
2023-01-09T02:01:16.728Z,98371.91
2023-01-09T02:03:43.426Z,98360.53
2023-01-09T02:06:10.851Z,98368.97
2023-01-09T02:08:37.435Z,98367.75
2023-01-09T02:11:05.772Z,98363.06
2023-01-09T02:13:35.493Z,98372.53
2023-01-09T02:16:07.832Z,98371.00
2023-01-09T02:19:13.298Z,98371.00
2023-01-09T02:22:04.691Z,98367.59
2023-01-09T02:24:52.451Z,98363.66
2023-01-09T02:27:56.388Z,98366.81
2023-01-09T02:30:32.123Z,98364.50
2023-01-09T02:33:19.930Z,98369.56
2023-01-09T02:36:48.159Z,98376.78
2023-01-09T02:39:27.462Z,98391.88
2023-01-09T02:42:10.727Z,98390.25
2023-01-09T02:44:37.141Z,98393.63
2023-01-09T02:47:17.794Z,98386.31
2023-01-09T02:49:48.576Z,98379.44
2023-01-09T02:52:37.091Z,98384.44
2023-01-09T02:55:35.901Z,98401.88
2023-01-09T02:58:08.035Z,98407.50
2023-01-09T03:00:53.413Z,98411.78
2023-01-09T03:03:40.196Z,98417.69
2023-01-09T03:06:25.929Z,98435.69
2023-01-09T03:09:03.049Z,98440.03
2023-01-09T03:11:38.503Z,98444.47
2023-01-09T03:14:20.792Z,98449.63
2023-01-09T03:16:49.800Z,98455.47
2023-01-09T03:19:20.778Z,98449.53
2023-01-09T03:21:47.858Z,98449.31
2023-01-09T03:24:14.694Z,98451.19
2023-01-09T03:26:41.250Z,98454.56
2023-01-09T03:29:07.858Z,98461.47
2023-01-09T03:31:34.287Z,98461.75
2023-01-09T03:34:00.771Z,98472.59
2023-01-09T03:36:27.169Z,98467.09
2023-01-09T03:38:53.605Z,98466.16
2023-01-09T03:41:20.181Z,98473.50
2023-01-09T03:43:48.344Z,98481.06
2023-01-09T03:46:15.939Z,98484.72
2023-01-09T03:48:42.589Z,98481.69
2023-01-09T03:51:09.414Z,98487.59
2023-01-09T03:53:35.847Z,98498.03
2023-01-09T03:56:02.275Z,98492.13
2023-01-09T03:58:28.831Z,98500.84
2023-01-09T04:01:03.844Z,98499.50
2023-01-09T04:03:30.869Z,98502.03
2023-01-09T04:05:57.270Z,98503.50
2023-01-09T04:08:23.718Z,98513.16
2023-01-09T04:10:51.049Z,98517.44
2023-01-09T04:13:18.393Z,98529.44
2023-01-09T04:15:46.336Z,98540.34
2023-01-09T04:18:13.148Z,98544.09
2023-01-09T04:20:39.602Z,98547.59
2023-01-09T04:23:06.057Z,98558.00
2023-01-09T04:25:32.662Z,98567.50
2023-01-09T04:27:59.186Z,98581.44
2023-01-09T04:30:25.646Z,98575.88
2023-01-09T04:32:52.440Z,98575.69
2023-01-09T04:35:20.146Z,98572.66
2023-01-09T04:37:46.666Z,98579.56
2023-01-09T04:40:14.088Z,98569.91
2023-01-09T04:42:41.365Z,98580.19
2023-01-09T04:45:10.142Z,98573.75
2023-01-09T04:47:36.588Z,98575.69
2023-01-09T04:50:03.771Z,98579.34
2023-01-09T04:52:30.789Z,98581.44
2023-01-09T04:54:57.149Z,98597.03
2023-01-09T04:57:23.658Z,98597.97
2023-01-09T04:59:51.629Z,98607.44
2023-01-09T05:02:18.546Z,98622.22
2023-01-09T05:04:44.964Z,98633.03
2023-01-09T05:07:11.383Z,98628.84
2023-01-09T05:09:37.793Z,98638.69
2023-01-09T05:12:04.531Z,98637.75
2023-01-09T05:14:30.893Z,98645.00
2023-01-09T05:16:57.282Z,98649.84
2023-01-09T05:19:23.737Z,98642.50
2023-01-09T05:21:50.481Z,98639.06
2023-01-09T05:24:16.880Z,98642.28
2023-01-09T05:26:43.237Z,98636.13
2023-01-09T05:29:09.651Z,98649.38
2023-01-09T05:31:36.060Z,98653.22
2023-01-09T05:34:02.582Z,98671.88
2023-01-09T05:36:29.732Z,98672.84
2023-01-09T05:38:57.842Z,98685.31
2023-01-09T05:41:26.074Z,98694.69
2023-01-09T05:43:52.516Z,98703.56
2023-01-09T05:46:19.084Z,98709.53
2023-01-09T05:48:45.591Z,98708.53
2023-01-09T05:51:12.942Z,98709.19
2023-01-09T05:53:39.640Z,98707.69
2023-01-09T05:56:06.319Z,98701.91
2023-01-09T05:58:32.666Z,98703.81
2023-01-09T06:00:59.195Z,98696.25
2023-01-09T06:03:25.581Z,98704.25
2023-01-09T06:05:51.928Z,98692.09
2023-01-09T06:08:18.321Z,98697.38
2023-01-09T06:10:46.136Z,98693.88
2023-01-09T06:13:12.541Z,98692.88
2023-01-09T06:15:38.935Z,98699.13
2023-01-09T06:18:05.377Z,98700.69
2023-01-09T06:20:31.814Z,98698.31
2023-01-09T06:22:58.235Z,98699.91
2023-01-09T06:25:24.773Z,98705.34
2023-01-09T06:27:52.139Z,98699.19
2023-01-09T06:30:19.911Z,98707.31
2023-01-09T06:32:49.697Z,98707.13
2023-01-09T06:35:20.370Z,98722.50
2023-01-09T06:37:47.771Z,98712.53
2023-01-09T06:40:14.821Z,98716.94
2023-01-09T06:42:44.591Z,98730.16
2023-01-09T06:45:11.632Z,98715.16
2023-01-09T06:47:38.004Z,98726.72
2023-01-09T06:50:04.807Z,98723.56
2023-01-09T06:52:31.191Z,98726.84
2023-01-09T06:54:57.593Z,98739.25
2023-01-09T06:57:23.938Z,98737.59
2023-01-09T06:59:50.324Z,98733.16
2023-01-09T07:02:21.521Z,98735.72
2023-01-09T07:04:47.946Z,98744.47
2023-01-09T07:07:15.050Z,98744.94
2023-01-09T07:09:41.458Z,98744.31
2023-01-09T07:12:07.917Z,98753.50
2023-01-09T07:14:34.405Z,98754.03
2023-01-09T07:17:00.850Z,98757.38
2023-01-09T07:19:27.376Z,98742.53
2023-01-09T07:21:53.790Z,98753.47
2023-01-09T07:24:20.162Z,98753.47
2023-01-09T07:26:46.636Z,98751.94
2023-01-09T07:29:13.182Z,98754.19
2023-01-09T07:31:39.671Z,98759.63
2023-01-09T07:34:06.217Z,98758.63
2023-01-09T07:36:32.588Z,98761.03
2023-01-09T07:38:59.025Z,98766.66
2023-01-09T07:41:25.472Z,98771.25
2023-01-09T07:43:51.880Z,98772.50
2023-01-09T07:46:18.377Z,98781.88
2023-01-09T07:48:44.738Z,98788.75
2023-01-09T07:51:11.152Z,98783.00
2023-01-09T07:53:37.534Z,98785.38
2023-01-09T07:56:04.096Z,98785.28
2023-01-09T07:58:30.511Z,98783.22
2023-01-09T08:00:56.926Z,98786.06
2023-01-09T08:03:23.382Z,98793.16
2023-01-09T08:05:51.442Z,98794.38
2023-01-09T08:08:18.121Z,98787.78
2023-01-09T08:10:44.486Z,98796.41
2023-01-09T08:13:10.884Z,98799.13
2023-01-09T08:15:37.642Z,98794.56
2023-01-09T08:18:04.213Z,98793.59
2023-01-09T08:20:31.070Z,98786.81
2023-01-09T08:22:57.636Z,98797.41
2023-01-09T08:25:24.064Z,98786.97
2023-01-09T08:27:50.490Z,98788.22
2023-01-09T08:30:17.833Z,98785.28
2023-01-09T08:32:49.350Z,98792.72
2023-01-09T08:35:15.760Z,98792.69
2023-01-09T08:37:48.943Z,98794.41
2023-01-09T08:40:16.480Z,98799.69
2023-01-09T08:43:01.209Z,98797.81
2023-01-09T08:45:46.478Z,98809.03
2023-01-09T08:48:12.915Z,98806.78
2023-01-09T08:50:39.344Z,98804.81
2023-01-09T08:53:05.836Z,98796.19
2023-01-09T08:55:32.249Z,98802.56
2023-01-09T08:57:58.634Z,98807.47
2023-01-09T09:00:25.398Z,98808.31
2023-01-09T09:02:53.754Z,98803.41
2023-01-09T09:05:21.367Z,98813.41
2023-01-09T09:07:49.143Z,98809.72
2023-01-09T09:10:18.461Z,98812.38
2023-01-09T09:12:47.628Z,98803.19
2023-01-09T09:15:16.332Z,98817.47
2023-01-09T09:17:44.398Z,98811.59
2023-01-09T09:20:11.449Z,98810.97
2023-01-09T09:22:38.174Z,98808.47
2023-01-09T09:25:04.949Z,98811.47
2023-01-09T09:27:32.138Z,98810.75
2023-01-09T09:29:58.629Z,98815.75
2023-01-09T09:32:25.149Z,98811.97
2023-01-09T09:34:51.490Z,98814.00
2023-01-09T09:37:17.924Z,98814.88
2023-01-09T09:39:44.291Z,98820.94
2023-01-09T09:42:38.582Z,98822.09
2023-01-09T09:45:16.658Z,98817.66
2023-01-09T09:48:07.955Z,98830.94
2023-01-09T09:51:02.389Z,98839.09
2023-01-09T09:53:51.518Z,98836.78
2023-01-09T09:56:21.730Z,98843.00
2023-01-09T09:58:53.656Z,98838.78
2023-01-09T10:01:24.866Z,98839.84
2023-01-09T10:03:58.977Z,98850.31
2023-01-09T10:06:31.384Z,98847.44
2023-01-09T10:09:35.257Z,98842.44
2023-01-09T10:12:15.546Z,98846.44
2023-01-09T10:14:42.018Z,98851.06
2023-01-09T10:17:14.092Z,98841.72
2023-01-09T10:20:11.827Z,98843.44
2023-01-09T10:22:49.542Z,98839.00
2023-01-09T10:25:53.804Z,98839.63
2023-01-09T10:28:58.948Z,98834.06
2023-01-09T10:31:39.095Z,98828.16
2023-01-09T10:34:26.849Z,98838.38
2023-01-09T10:37:14.804Z,98836.50
2023-01-09T10:39:52.396Z,98835.13
2023-01-09T10:42:47.682Z,98836.34
2023-01-09T10:45:40.208Z,98838.47
2023-01-09T10:48:20.737Z,98835.19
2023-01-09T10:50:50.058Z,98838.63
2023-01-09T10:53:30.577Z,98835.75
2023-01-09T10:56:05.754Z,98843.00
2023-01-09T10:58:32.254Z,98844.81
2023-01-09T11:01:01.472Z,98843.88
2023-01-09T11:03:28.944Z,98842.63
2023-01-09T11:05:58.384Z,98842.72
2023-01-09T11:08:46.281Z,98831.78
2023-01-09T11:11:30.373Z,98830.69
2023-01-09T11:14:13.663Z,98832.72
2023-01-09T11:16:51.649Z,98825.56
2023-01-09T11:19:18.033Z,98831.47
2023-01-09T11:21:44.742Z,98830.25
2023-01-09T11:24:23.773Z,98826.81
2023-01-09T11:26:52.486Z,98821.50
2023-01-09T11:29:24.581Z,98826.50
2023-01-09T11:31:56.723Z,98834.16
2023-01-09T11:34:26.053Z,98836.06
2023-01-09T11:36:54.606Z,98821.66
2023-01-09T11:39:24.155Z,98835.72
2023-01-09T11:42:06.018Z,98842.34
2023-01-09T11:44:33.104Z,98841.63
2023-01-09T11:46:59.810Z,98840.53
2023-01-09T11:49:31.134Z,98835.84
2023-01-09T11:52:20.978Z,98840.53
2023-01-09T11:55:05.515Z,98846.78
2023-01-09T11:57:32.451Z,98840.00
2023-01-09T12:00:02.488Z,98841.22
2023-01-09T12:02:57.079Z,98850.19
2023-01-09T12:05:29.616Z,98846.91
2023-01-09T12:08:20.604Z,98857.06
2023-01-09T12:11:14.313Z,98848.19
2023-01-09T12:13:58.549Z,98845.09
2023-01-09T12:16:50.843Z,98845.47
2023-01-09T12:20:03.186Z,98847.72
2023-01-09T12:22:49.076Z,98839.75
2023-01-09T12:25:25.137Z,98845.22
2023-01-09T12:28:05.933Z,98854.22
2023-01-09T12:31:01.870Z,98853.97
2023-01-09T12:34:03.672Z,98852.16
2023-01-09T12:36:38.657Z,98857.47
2023-01-09T12:39:45.418Z,98861.00
2023-01-09T12:42:43.014Z,98854.06
2023-01-09T12:45:28.177Z,98862.63
2023-01-09T12:48:07.867Z,98848.19
2023-01-09T12:51:22.514Z,98853.66
2023-01-09T12:54:23.985Z,98851.16
2023-01-09T12:57:22.961Z,98862.66
2023-01-09T12:59:54.214Z,98856.53
2023-01-09T13:03:11.420Z,98870.97
2023-01-09T13:05:47.930Z,98870.66
2023-01-09T13:08:17.032Z,98883.56
2023-01-09T13:10:47.717Z,98880.53
2023-01-09T13:13:32.115Z,98889.22
2023-01-09T13:16:04.754Z,98886.47
2023-01-09T13:18:40.970Z,98890.47
2023-01-09T13:21:08.435Z,98887.72
2023-01-09T13:23:43.918Z,98886.41
2023-01-09T13:26:17.364Z,98892.34
2023-01-09T13:28:52.404Z,98897.81
2023-01-09T13:31:27.329Z,98894.28
2023-01-09T13:33:57.610Z,98892.53
2023-01-09T13:36:35.613Z,98895.53
2023-01-09T13:39:02.538Z,98893.78
2023-01-09T13:41:49.711Z,98891.47
2023-01-09T13:44:21.391Z,98897.50
2023-01-09T13:46:54.121Z,98889.69
2023-01-09T13:49:41.966Z,98890.19
2023-01-09T13:52:27.187Z,98888.44
2023-01-09T13:54:55.217Z,98884.94
2023-01-09T13:57:31.237Z,98889.22
2023-01-09T14:00:20.745Z,98890.78
2023-01-09T14:02:48.841Z,98882.63
2023-01-09T14:05:35.535Z,98887.56
2023-01-09T14:08:11.366Z,98895.03
2023-01-09T14:10:44.638Z,98896.63
2023-01-09T14:13:17.551Z,98907.41
2023-01-09T14:15:47.000Z,98914.06
2023-01-09T14:18:18.278Z,98916.19
2023-01-09T14:20:53.859Z,98909.81
2023-01-09T14:23:49.851Z,98915.22
2023-01-09T14:26:23.942Z,98914.53
2023-01-09T14:28:50.512Z,98922.56
2023-01-09T14:31:32.094Z,98933.31
2023-01-09T14:34:31.103Z,98931.91
2023-01-09T14:37:00.989Z,98933.38
2023-01-09T14:39:30.126Z,98924.28
2023-01-09T14:42:09.169Z,98926.03
2023-01-09T14:44:47.077Z,98937.63
2023-01-09T14:47:31.851Z,98948.69
2023-01-09T14:50:07.509Z,98948.09
2023-01-09T14:52:38.976Z,98960.81
2023-01-09T14:55:25.911Z,98960.75
2023-01-09T14:57:54.894Z,98966.13
2023-01-09T15:00:22.988Z,98968.25
2023-01-09T15:02:51.607Z,98972.91
2023-01-09T15:05:21.715Z,98981.81
2023-01-09T15:08:00.054Z,98976.19
2023-01-09T15:10:30.624Z,98980.19
2023-01-09T15:12:59.838Z,98996.72
2023-01-09T15:15:27.236Z,98997.16
2023-01-09T15:18:06.601Z,98999.97
2023-01-09T15:20:34.323Z,99000.59
2023-01-09T15:23:01.456Z,99010.44
2023-01-09T15:25:38.551Z,99013.78
2023-01-09T15:28:40.343Z,99015.78
2023-01-09T15:31:14.034Z,99026.34
2023-01-09T15:33:42.000Z,99026.13
2023-01-09T15:36:15.609Z,99032.34
2023-01-09T15:38:43.260Z,99047.09
2023-01-09T15:41:12.860Z,99053.25
2023-01-09T15:43:42.770Z,99059.97
2023-01-09T15:46:11.877Z,99071.25
2023-01-09T15:48:38.354Z,99072.44
2023-01-09T15:51:13.131Z,99077.88
2023-01-09T15:53:46.319Z,99080.06
2023-01-09T15:56:12.609Z,99079.06
2023-01-09T15:58:41.462Z,99077.88
2023-01-09T16:01:27.674Z,99091.66
2023-01-09T16:04:03.189Z,99088.47
2023-01-09T16:06:31.807Z,99099.44
2023-01-09T16:09:00.052Z,99115.03
2023-01-09T16:11:32.518Z,99122.16
2023-01-09T16:14:12.375Z,99130.03
2023-01-09T16:16:39.886Z,99138.34
2023-01-09T16:19:41.378Z,99133.97
2023-01-09T16:22:34.050Z,99141.56
2023-01-09T16:25:21.435Z,99150.91
2023-01-09T16:28:21.180Z,99153.63
2023-01-09T16:30:52.516Z,99168.94
2023-01-09T16:33:22.016Z,99165.41
2023-01-09T16:35:49.439Z,99176.34
2023-01-09T16:38:16.807Z,99188.91
2023-01-09T16:41:18.416Z,99200.53
2023-01-09T16:43:45.431Z,99202.50
2023-01-09T16:46:13.851Z,99209.75
2023-01-09T16:48:40.892Z,99208.81
2023-01-09T16:51:14.297Z,99222.06
2023-01-09T16:53:40.689Z,99220.22
2023-01-09T16:56:15.079Z,99233.53
2023-01-09T16:58:41.516Z,99235.53
2023-01-09T17:01:08.001Z,99242.38
2023-01-09T17:03:34.428Z,99251.78
2023-01-09T17:06:01.369Z,99255.44
2023-01-09T17:08:34.475Z,99262.41
2023-01-09T17:11:01.451Z,99262.75
2023-01-09T17:13:27.890Z,99268.41
2023-01-09T17:15:56.596Z,99278.50
2023-01-09T17:18:25.026Z,99284.84
2023-01-09T17:20:57.237Z,99287.66
2023-01-09T17:23:25.740Z,99284.13
2023-01-09T17:26:15.309Z,99298.44
2023-01-09T17:28:51.480Z,99302.94
2023-01-09T17:31:18.189Z,99319.28
2023-01-09T17:33:44.733Z,99317.06
2023-01-09T17:36:36.341Z,99325.44
2023-01-09T17:39:03.510Z,99326.47
2023-01-09T17:41:31.831Z,99322.28
2023-01-09T17:43:59.333Z,99333.28
2023-01-09T17:46:34.736Z,99329.09
2023-01-09T17:49:02.549Z,99335.94
2023-01-09T17:51:29.551Z,99337.66
2023-01-09T17:53:56.354Z,99337.53
2023-01-09T17:56:29.448Z,99331.63
2023-01-09T17:58:56.174Z,99333.69
2023-01-09T18:01:22.672Z,99338.16
2023-01-09T18:03:50.409Z,99342.09
2023-01-09T18:06:19.195Z,99357.97
2023-01-09T18:08:46.077Z,99356.81
2023-01-09T18:11:17.667Z,99360.56
2023-01-09T18:13:49.365Z,99363.88
2023-01-09T18:16:18.727Z,99362.50
2023-01-09T18:18:47.270Z,99372.88
2023-01-09T18:21:16.254Z,99374.13
2023-01-09T18:23:42.833Z,99374.88
2023-01-09T18:26:10.597Z,99379.44
2023-01-09T18:28:38.505Z,99385.75
2023-01-09T18:31:06.074Z,99394.41
2023-01-09T18:33:32.773Z,99387.78
2023-01-09T18:36:08.547Z,99399.22
2023-01-09T18:38:35.752Z,99405.66
2023-01-09T18:41:03.270Z,99411.56
2023-01-09T18:43:30.220Z,99416.66
2023-01-09T18:45:56.944Z,99418.44
2023-01-09T18:48:23.724Z,99427.09
2023-01-09T18:50:50.061Z,99429.19
2023-01-09T18:53:16.469Z,99432.31
2023-01-09T18:55:42.820Z,99433.53
2023-01-09T18:58:09.293Z,99434.34
2023-01-09T19:00:36.583Z,99437.59
2023-01-09T19:03:02.998Z,99443.03
2023-01-09T19:05:32.067Z,99453.81
2023-01-09T19:07:58.674Z,99459.00
2023-01-09T19:10:25.060Z,99460.31
2023-01-09T19:12:51.493Z,99462.50
2023-01-09T19:15:17.896Z,99468.47
2023-01-09T19:17:44.238Z,99470.28
2023-01-09T19:20:11.346Z,99465.88
2023-01-09T19:22:37.734Z,99471.41
2023-01-09T19:25:04.422Z,99480.00
2023-01-09T19:27:30.940Z,99480.75
2023-01-09T19:29:57.367Z,99484.91
2023-01-09T19:32:23.824Z,99480.91
2023-01-09T19:34:50.259Z,99491.28
2023-01-09T19:37:18.184Z,99497.63
2023-01-09T19:39:46.635Z,99499.22
2023-01-09T19:42:13.783Z,99496.72
2023-01-09T19:44:40.500Z,99502.72
2023-01-09T19:47:06.953Z,99501.34
2023-01-09T19:49:33.367Z,99499.94
2023-01-09T19:52:00.709Z,99501.81
2023-01-09T19:54:29.163Z,99514.19
2023-01-09T19:56:55.797Z,99512.81
2023-01-09T19:59:22.159Z,99523.25
2023-01-09T20:01:48.578Z,99526.84
2023-01-09T20:04:15.886Z,99535.59
2023-01-09T20:06:48.204Z,99540.84
2023-01-09T20:09:17.602Z,99537.53
2023-01-09T20:11:44.927Z,99547.16
2023-01-09T20:14:13.565Z,99550.84
2023-01-09T20:16:40.630Z,99554.22
2023-01-09T20:19:08.547Z,99555.34
2023-01-09T20:21:35.648Z,99553.59
2023-01-09T20:24:04.860Z,99562.16
2023-01-09T20:26:32.550Z,99556.81
2023-01-09T20:28:59.368Z,99566.44
2023-01-09T20:31:31.224Z,99567.53
2023-01-09T20:34:01.538Z,99568.50
2023-01-09T20:36:30.024Z,99566.94
2023-01-09T20:38:58.930Z,99572.94
2023-01-09T20:41:25.900Z,99577.25
2023-01-09T20:43:55.693Z,99575.69
2023-01-09T20:46:24.047Z,99588.84
2023-01-09T20:48:50.527Z,99596.94
2023-01-09T20:51:17.776Z,99599.00
2023-01-09T20:53:55.452Z,99609.34
2023-01-09T20:56:23.623Z,99607.59
2023-01-09T20:58:50.200Z,99610.25
2023-01-09T21:01:16.784Z,99615.41
2023-01-09T21:03:43.576Z,99613.75
2023-01-09T21:06:12.770Z,99618.81
2023-01-09T21:08:39.955Z,99624.34
2023-01-09T21:11:06.356Z,99625.69
2023-01-09T21:13:32.736Z,99631.13
2023-01-09T21:16:05.144Z,99638.47
2023-01-09T21:18:31.952Z,99634.97
2023-01-09T21:21:03.474Z,99642.72
2023-01-09T21:23:29.882Z,99648.53
2023-01-09T21:25:56.291Z,99648.59
2023-01-09T21:28:23.858Z,99646.81
2023-01-09T21:30:50.499Z,99653.69
2023-01-09T21:33:24.886Z,99658.00
2023-01-09T21:35:55.987Z,99664.28
2023-01-09T21:38:23.974Z,99658.97
2023-01-09T21:40:53.977Z,99659.84
2023-01-09T21:43:48.874Z,99670.47
2023-01-09T21:46:35.791Z,99672.34
2023-01-09T21:49:06.306Z,99669.94
2023-01-09T21:51:38.797Z,99672.44
2023-01-09T21:54:05.300Z,99681.19
2023-01-09T21:56:31.629Z,99694.34
2023-01-09T21:58:58.031Z,99705.91
2023-01-09T22:01:24.546Z,99697.69
2023-01-09T22:03:54.033Z,99700.50
2023-01-09T22:06:20.614Z,99703.19
2023-01-09T22:08:47.247Z,99712.84
2023-01-09T22:11:16.033Z,99720.84
2023-01-09T22:13:47.614Z,99718.09
2023-01-09T22:16:14.156Z,99734.97
2023-01-09T22:18:40.642Z,99739.31
2023-01-09T22:21:07.135Z,99744.50
2023-01-09T22:23:33.621Z,99749.78
2023-01-09T22:26:07.436Z,99751.44
2023-01-09T22:28:33.933Z,99747.16
2023-01-09T22:31:00.295Z,99760.31
2023-01-09T22:33:26.750Z,99755.63
2023-01-09T22:35:53.120Z,99767.94
2023-01-09T22:38:19.507Z,99768.69
2023-01-09T22:40:45.854Z,99769.97
2023-01-09T22:43:16.102Z,99767.09
2023-01-09T22:45:43.001Z,99779.63
2023-01-09T22:48:09.935Z,99779.47
2023-01-09T22:50:37.103Z,99782.66
2023-01-09T22:53:03.492Z,99790.81
2023-01-09T22:55:29.835Z,99804.78
2023-01-09T22:57:56.192Z,99797.75
2023-01-09T23:00:22.573Z,99797.44
2023-01-09T23:02:49.112Z,99800.00
2023-01-09T23:05:15.706Z,99803.63
2023-01-09T23:07:42.170Z,99805.00
2023-01-09T23:10:09.272Z,99808.50
2023-01-09T23:12:35.632Z,99805.91
2023-01-09T23:15:02.062Z,99813.44
2023-01-09T23:17:28.500Z,99822.78
2023-01-09T23:19:54.888Z,99832.88
2023-01-09T23:22:21.423Z,99838.69
2023-01-09T23:24:47.806Z,99846.22
2023-01-09T23:27:14.170Z,99855.59
2023-01-09T23:29:40.573Z,99865.13
2023-01-09T23:32:07.180Z,99859.88
2023-01-09T23:34:33.767Z,99874.19
2023-01-09T23:37:00.599Z,99881.53
2023-01-09T23:39:27.070Z,99891.66
2023-01-09T23:42:12.008Z,99900.94
2023-01-09T23:44:38.545Z,99904.88
2023-01-09T23:47:05.206Z,99904.41
2023-01-09T23:49:31.702Z,99901.19
2023-01-09T23:51:58.184Z,99910.72
2023-01-09T23:54:24.772Z,99909.66
2023-01-09T23:56:51.206Z,99912.81
2023-01-09T23:59:18.000Z,99917.59
